createdAt,value
2018-08-25T00:01:00.368Z,14.5
2018-08-25T00:02:01.087Z,14.4
2018-08-25T00:03:01.796Z,14.4
2018-08-25T00:04:02.520Z,14.5
2018-08-25T00:05:03.243Z,14.5
2018-08-25T00:06:03.974Z,14.5
2018-08-25T00:07:04.681Z,14.4
2018-08-25T00:08:05.398Z,14.5
2018-08-25T00:09:06.121Z,14.5
2018-08-25T00:10:06.844Z,14.5
2018-08-25T00:11:07.828Z,14.5
2018-08-25T00:12:08.539Z,14.5
2018-08-25T00:13:09.607Z,14.5
2018-08-25T00:14:10.314Z,14.5
2018-08-25T00:15:11.043Z,14.5
2018-08-25T00:16:11.765Z,14.6
2018-08-25T00:17:12.481Z,14.5
2018-08-25T00:18:13.200Z,14.5
2018-08-25T00:19:13.912Z,14.4
2018-08-25T00:20:14.634Z,14.5
2018-08-25T00:21:15.350Z,14.5
2018-08-25T00:22:16.088Z,14.5
2018-08-25T00:23:16.802Z,14.5
2018-08-25T00:24:17.597Z,14.5
2018-08-25T00:25:18.313Z,14.6
2018-08-25T00:26:19.276Z,14.5
2018-08-25T00:27:19.997Z,14.6
2018-08-25T00:28:20.721Z,14.5
2018-08-25T00:29:21.801Z,14.6
2018-08-25T00:30:22.539Z,14.6
2018-08-25T00:31:23.251Z,14.7
2018-08-25T00:32:23.982Z,14.7
2018-08-25T00:33:24.706Z,14.6
2018-08-25T00:34:25.764Z,14.7
2018-08-25T00:35:26.498Z,14.7
2018-08-25T00:36:27.208Z,14.7
2018-08-25T00:37:28.183Z,14.7
2018-08-25T00:38:28.901Z,14.6
2018-08-25T00:39:29.636Z,14.7
2018-08-25T00:40:30.398Z,14.8
2018-08-25T00:41:31.136Z,14.8
2018-08-25T00:42:32.107Z,14.8
2018-08-25T00:43:33.091Z,14.9
2018-08-25T00:44:33.815Z,14.9
2018-08-25T00:45:34.529Z,14.9
2018-08-25T00:46:35.269Z,14.9
2018-08-25T00:47:36.036Z,14.9
2018-08-25T00:48:36.704Z,15.0
2018-08-25T00:49:37.446Z,14.9
2018-08-25T00:50:38.202Z,14.9
2018-08-25T00:51:38.932Z,14.9
2018-08-25T00:52:39.908Z,14.9
2018-08-25T00:53:40.643Z,14.9
2018-08-25T00:54:41.358Z,14.9
2018-08-25T00:55:42.086Z,15.0
2018-08-25T00:56:42.809Z,14.9
2018-08-25T00:57:43.531Z,14.9
2018-08-25T00:58:44.245Z,14.8
2018-08-25T00:59:44.971Z,14.8
2018-08-25T01:00:45.756Z,14.9
2018-08-25T01:01:46.488Z,14.8
2018-08-25T01:02:47.424Z,14.8
2018-08-25T01:03:48.135Z,14.8
2018-08-25T01:04:49.111Z,14.8
2018-08-25T01:05:49.831Z,14.8
2018-08-25T01:06:50.543Z,14.8
2018-08-25T01:07:51.256Z,14.7
2018-08-25T01:08:52.322Z,14.7
2018-08-25T01:09:53.289Z,14.7
2018-08-25T01:10:54.251Z,14.7
2018-08-25T01:11:54.975Z,14.7
2018-08-25T01:12:55.704Z,14.7
2018-08-25T01:13:57.700Z,14.8
2018-08-25T01:14:58.990Z,14.8
2018-08-25T01:15:59.694Z,14.8
2018-08-25T01:17:00.443Z,14.9
2018-08-25T01:18:01.151Z,14.8
2018-08-25T01:19:01.880Z,14.8
2018-08-25T01:20:02.731Z,14.8
2018-08-25T01:21:03.485Z,14.8
2018-08-25T01:22:04.193Z,14.9
2018-08-25T01:23:04.919Z,14.8
2018-08-25T01:24:05.635Z,14.9
2018-08-25T01:25:06.341Z,14.9
2018-08-25T01:26:07.064Z,14.8
2018-08-25T01:27:07.784Z,14.9
2018-08-25T01:28:08.498Z,14.9
2018-08-25T01:29:09.217Z,14.9
2018-08-25T01:30:09.991Z,14.8
2018-08-25T01:31:10.714Z,14.8
2018-08-25T01:32:12.129Z,14.7
2018-08-25T01:33:13.125Z,14.8
2018-08-25T01:34:13.834Z,14.9
2018-08-25T01:35:14.563Z,14.9
2018-08-25T01:36:15.303Z,14.8
2018-08-25T01:37:16.010Z,14.8
2018-08-25T01:38:16.724Z,14.8
2018-08-25T01:39:17.452Z,14.8
2018-08-25T01:40:18.231Z,14.9
2018-08-25T01:41:18.961Z,14.8
2018-08-25T01:42:19.677Z,14.9
2018-08-25T01:43:20.644Z,14.9
2018-08-25T01:44:21.366Z,14.8
2018-08-25T01:45:22.090Z,14.9
2018-08-25T01:46:23.061Z,14.8
2018-08-25T01:47:23.780Z,14.8
2018-08-25T01:48:24.751Z,14.9
2018-08-25T01:49:25.506Z,14.8
2018-08-25T01:50:26.236Z,14.7
2018-08-25T01:51:27.024Z,14.7
2018-08-25T01:52:27.732Z,14.7
2018-08-25T01:53:28.807Z,14.6
2018-08-25T01:54:29.530Z,14.7
2018-08-25T01:55:30.831Z,14.7
2018-08-25T01:56:31.576Z,14.7
2018-08-25T01:57:32.323Z,14.7
2018-08-25T01:58:33.044Z,14.6
2018-08-25T01:59:33.771Z,14.5
2018-08-25T02:00:34.490Z,14.5
2018-08-25T02:01:35.512Z,14.5
2018-08-25T02:02:36.964Z,14.5
2018-08-25T02:03:38.039Z,14.5
2018-08-25T02:04:38.758Z,14.4
2018-08-25T02:05:39.505Z,14.4
2018-08-25T02:06:40.266Z,14.3
2018-08-25T02:07:40.989Z,14.3
2018-08-25T02:08:41.717Z,14.3
2018-08-25T02:09:42.448Z,14.2
2018-08-25T02:10:43.161Z,14.3
2018-08-25T02:11:43.876Z,14.3
2018-08-25T02:12:44.605Z,14.2
2018-08-25T02:13:45.381Z,14.2
2018-08-25T02:14:46.102Z,14.2
2018-08-25T02:15:47.080Z,14.2
2018-08-25T02:16:47.805Z,14.1
2018-08-25T02:17:48.530Z,14.1
2018-08-25T02:18:49.507Z,14.0
2018-08-25T02:19:50.224Z,14.0
2018-08-25T02:20:50.952Z,14.0
2018-08-25T02:21:51.667Z,13.9
2018-08-25T02:22:52.394Z,13.9
2018-08-25T02:23:53.113Z,13.9
2018-08-25T02:24:53.850Z,13.9
2018-08-25T02:25:54.571Z,13.8
2018-08-25T02:26:55.532Z,13.8
2018-08-25T02:27:56.263Z,13.9
2018-08-25T02:28:56.982Z,13.9
2018-08-25T02:29:57.699Z,13.8
2018-08-25T02:30:58.670Z,13.8
2018-08-25T02:31:59.642Z,13.7
2018-08-25T02:33:00.358Z,13.8
2018-08-25T02:34:01.095Z,13.7
2018-08-25T02:35:01.824Z,13.6
2018-08-25T02:36:02.556Z,13.7
2018-08-25T02:37:03.321Z,13.6
2018-08-25T02:38:04.038Z,13.7
2018-08-25T02:39:04.758Z,13.7
2018-08-25T02:40:05.483Z,13.6
2018-08-25T02:41:06.196Z,13.6
2018-08-25T02:42:06.943Z,13.5
2018-08-25T02:43:07.627Z,13.6
2018-08-25T02:44:08.358Z,13.5
2018-08-25T02:45:09.376Z,13.5
2018-08-25T02:46:10.595Z,13.5
2018-08-25T02:47:11.315Z,13.4
2018-08-25T02:48:12.040Z,13.5
2018-08-25T02:49:12.755Z,13.5
2018-08-25T02:50:13.478Z,13.5
2018-08-25T02:51:14.204Z,13.6
2018-08-25T02:52:14.928Z,13.5
2018-08-25T02:53:15.650Z,13.4
2018-08-25T02:54:16.626Z,13.4
2018-08-25T02:55:17.331Z,13.4
2018-08-25T02:56:18.063Z,13.4
2018-08-25T02:57:18.782Z,13.3
2018-08-25T02:58:19.749Z,13.3
2018-08-25T02:59:20.469Z,13.3
2018-08-25T03:00:21.195Z,13.2
2018-08-25T03:01:21.919Z,13.2
2018-08-25T03:02:22.637Z,13.1
2018-08-25T03:03:23.603Z,13.1
2018-08-25T03:04:24.578Z,13.1
2018-08-25T03:05:25.283Z,13.1
2018-08-25T03:06:26.248Z,13.0
2018-08-25T03:07:26.975Z,13.1
2018-08-25T03:08:27.695Z,13.0
2018-08-25T03:09:28.413Z,13.0
2018-08-25T03:10:29.129Z,13.0
2018-08-25T03:11:29.847Z,13.0
2018-08-25T03:12:30.818Z,13.1
2018-08-25T03:13:31.786Z,13.1
2018-08-25T03:14:32.511Z,13.1
2018-08-25T03:15:33.235Z,13.2
2018-08-25T03:16:33.947Z,13.1
2018-08-25T03:17:34.671Z,13.1
2018-08-25T03:18:35.648Z,13.2
2018-08-25T03:19:36.361Z,13.1
2018-08-25T03:20:37.086Z,13.3
2018-08-25T03:21:37.796Z,13.3
2018-08-25T03:22:38.765Z,13.4
2018-08-25T03:23:39.476Z,13.4
2018-08-25T03:24:40.795Z,13.4
2018-08-25T03:25:41.513Z,13.5
2018-08-25T03:26:42.233Z,13.6
2018-08-25T03:27:43.202Z,13.6
2018-08-25T03:28:43.924Z,13.7
2018-08-25T03:29:44.643Z,13.7
2018-08-25T03:30:45.383Z,13.7
2018-08-25T03:31:46.101Z,13.8
2018-08-25T03:32:46.822Z,13.8
2018-08-25T03:33:47.550Z,13.9
2018-08-25T03:34:48.610Z,13.8
2018-08-25T03:35:49.342Z,13.9
2018-08-25T03:36:50.075Z,13.9
2018-08-25T03:37:50.792Z,13.9
2018-08-25T03:38:51.515Z,13.9
2018-08-25T03:39:52.282Z,13.9
2018-08-25T03:40:52.998Z,14.0
2018-08-25T03:41:53.723Z,13.9
2018-08-25T03:42:54.438Z,13.9
2018-08-25T03:43:55.156Z,14.0
2018-08-25T03:44:56.127Z,14.0
2018-08-25T03:45:56.898Z,14.0
2018-08-25T03:46:57.861Z,14.0
2018-08-25T03:47:58.600Z,14.0
2018-08-25T03:48:59.319Z,14.0
2018-08-25T03:50:00.284Z,14.0
2018-08-25T03:51:01.014Z,14.0
2018-08-25T03:52:01.739Z,14.1
2018-08-25T03:53:02.459Z,14.1
2018-08-25T03:54:03.192Z,14.1
2018-08-25T03:55:03.909Z,14.2
2018-08-25T03:56:04.883Z,14.2
2018-08-25T03:57:05.597Z,14.2
2018-08-25T03:58:06.326Z,14.3
2018-08-25T03:59:07.299Z,14.4
2018-08-25T04:00:08.046Z,14.3
2018-08-25T04:01:08.764Z,14.4
2018-08-25T04:02:09.751Z,14.4
2018-08-25T04:03:10.465Z,14.3
2018-08-25T04:04:11.254Z,14.5
2018-08-25T04:05:11.977Z,14.5
2018-08-25T04:06:12.694Z,14.4
2018-08-25T04:07:13.662Z,14.5
2018-08-25T04:08:14.386Z,14.5
2018-08-25T04:09:15.357Z,14.4
2018-08-25T04:10:16.082Z,14.5
2018-08-25T04:11:16.816Z,14.5
2018-08-25T04:12:17.538Z,14.5
2018-08-25T04:13:18.257Z,14.5
2018-08-25T04:14:19.232Z,14.4
2018-08-25T04:15:19.962Z,14.3
2018-08-25T04:16:20.683Z,14.3
2018-08-25T04:17:21.410Z,14.4
2018-08-25T04:18:22.138Z,14.3
2018-08-25T04:19:22.864Z,14.4
2018-08-25T04:20:23.582Z,14.3
2018-08-25T04:21:24.298Z,14.2
2018-08-25T04:22:25.041Z,14.2
2018-08-25T04:23:25.769Z,14.2
2018-08-25T04:24:26.494Z,14.1
2018-08-25T04:25:27.213Z,14.2
2018-08-25T04:26:27.943Z,14.2
2018-08-25T04:27:28.670Z,14.2
2018-08-25T04:28:29.387Z,14.2
2018-08-25T04:29:30.469Z,14.2
2018-08-25T04:30:31.191Z,14.1
2018-08-25T04:31:31.913Z,14.1
2018-08-25T04:32:32.641Z,14.1
2018-08-25T04:33:33.388Z,14.1
2018-08-25T04:34:34.096Z,13.9
2018-08-25T04:35:34.834Z,14.1
2018-08-25T04:36:35.574Z,14.1
2018-08-25T04:37:36.297Z,14.2
2018-08-25T04:38:37.034Z,14.2
2018-08-25T04:39:37.764Z,14.2
2018-08-25T04:40:38.741Z,14.2
2018-08-25T04:41:39.520Z,14.2
2018-08-25T04:42:40.238Z,14.2
2018-08-25T04:43:40.966Z,14.1
2018-08-25T04:44:41.687Z,14.1
2018-08-25T04:45:42.402Z,14.1
2018-08-25T04:46:43.131Z,14.2
2018-08-25T04:47:43.851Z,14.1
2018-08-25T04:48:44.925Z,14.2
2018-08-25T04:49:45.899Z,14.1
2018-08-25T04:50:46.626Z,14.2
2018-08-25T04:51:47.349Z,14.2
2018-08-25T04:52:48.091Z,14.3
2018-08-25T04:53:48.850Z,14.3
2018-08-25T04:54:49.585Z,14.3
2018-08-25T04:55:50.305Z,14.4
2018-08-25T04:56:51.025Z,14.4
2018-08-25T04:57:51.769Z,14.4
2018-08-25T04:58:52.538Z,14.4
2018-08-25T04:59:53.267Z,14.5
2018-08-25T05:00:54.249Z,14.5
2018-08-25T05:01:55.045Z,14.5
2018-08-25T05:02:55.713Z,14.5
2018-08-25T05:03:56.486Z,14.5
2018-08-25T05:04:57.228Z,14.5
2018-08-25T05:05:57.954Z,14.6
2018-08-25T05:06:58.668Z,14.4
2018-08-25T05:07:59.395Z,14.5
2018-08-25T05:09:00.124Z,14.5
2018-08-25T05:10:01.221Z,14.5
2018-08-25T05:12:17.514Z,14.5
2018-08-25T05:14:33.756Z,14.7
2018-08-25T05:16:50.077Z,14.8
2018-08-25T05:17:50.783Z,14.8
2018-08-25T05:20:07.057Z,14.9
2018-08-25T05:21:07.796Z,14.8
2018-08-25T05:22:08.516Z,14.8
2018-08-25T05:24:24.769Z,15.0
2018-08-25T05:25:25.517Z,14.9
2018-08-25T05:26:26.678Z,14.9
2018-08-25T05:27:27.429Z,14.9
2018-08-25T05:28:28.802Z,15.0
2018-08-25T05:29:29.527Z,15.1
2018-08-25T05:30:30.254Z,15.1
2018-08-25T05:31:30.986Z,15.2
2018-08-25T05:32:31.723Z,15.1
2018-08-25T05:33:32.455Z,15.1
2018-08-25T05:35:15.935Z,15.2
2018-08-25T05:36:16.668Z,15.2
2018-08-25T05:37:17.440Z,15.2
2018-08-25T05:38:18.165Z,15.1
2018-08-25T05:39:18.890Z,15.0
2018-08-25T05:40:19.626Z,14.6
2018-08-25T05:41:20.344Z,14.6
2018-08-25T05:42:21.074Z,14.3
2018-08-25T05:43:23.122Z,14.1
2018-08-25T05:44:23.891Z,14.1
2018-08-25T05:45:24.695Z,13.9
2018-08-25T05:46:25.420Z,13.9
2018-08-25T05:47:26.230Z,13.9
2018-08-25T05:48:26.975Z,13.8
2018-08-25T05:49:27.765Z,13.9
2018-08-25T05:50:28.505Z,13.8
2018-08-25T05:51:29.238Z,13.8
2018-08-25T05:52:30.020Z,13.7
2018-08-25T05:53:30.746Z,13.8
2018-08-25T05:54:31.484Z,13.8
2018-08-25T05:55:32.209Z,13.8
2018-08-25T05:56:32.932Z,13.7
2018-08-25T05:57:33.686Z,13.9
2018-08-25T05:58:34.402Z,13.7
2018-08-25T05:59:35.120Z,13.8
2018-08-25T06:00:35.847Z,13.8
2018-08-25T06:01:36.578Z,13.8
2018-08-25T06:02:37.303Z,13.7
2018-08-25T06:03:38.038Z,13.7
2018-08-25T06:04:38.848Z,13.7
2018-08-25T06:05:39.618Z,13.7
2018-08-25T06:06:40.371Z,13.7
2018-08-25T06:07:41.134Z,13.7
2018-08-25T06:08:41.862Z,13.7
2018-08-25T06:09:42.635Z,13.7
2018-08-25T06:10:43.407Z,13.6
2018-08-25T06:11:44.218Z,13.7
2018-08-25T06:14:02.022Z,13.6
2018-08-25T06:15:02.753Z,13.6
2018-08-25T06:16:03.484Z,13.5
2018-08-25T06:17:04.253Z,13.5
2018-08-25T06:18:04.985Z,13.5
2018-08-25T06:19:05.759Z,13.4
2018-08-25T06:20:06.868Z,13.5
2018-08-25T06:22:23.172Z,13.5
2018-08-25T06:23:23.892Z,13.5
2018-08-25T06:24:24.613Z,13.5
2018-08-25T06:25:25.398Z,13.5
2018-08-25T06:26:26.184Z,13.5
2018-08-25T06:27:26.912Z,13.5
2018-08-25T06:28:27.634Z,13.6
2018-08-25T06:29:28.365Z,13.5
2018-08-25T06:31:44.682Z,13.5
2018-08-25T06:32:45.416Z,13.6
2018-08-25T06:33:46.422Z,13.7
2018-08-25T06:34:47.141Z,13.8
2018-08-25T06:35:47.919Z,13.8
2018-08-25T06:36:48.656Z,13.9
2018-08-25T06:37:49.384Z,13.9
2018-08-25T06:38:50.118Z,13.9
2018-08-25T06:39:50.848Z,14.0
2018-08-25T06:40:51.570Z,13.8
2018-08-25T06:41:52.301Z,13.9
2018-08-25T06:42:53.280Z,13.8
2018-08-25T06:43:54.069Z,13.9
2018-08-25T06:44:54.838Z,14.0
2018-08-25T06:45:55.561Z,14.0
2018-08-25T06:46:56.343Z,13.9
2018-08-25T06:49:12.640Z,14.0
2018-08-25T06:50:13.432Z,14.0
2018-08-25T06:51:14.233Z,14.0
2018-08-25T06:52:14.994Z,13.9
2018-08-25T06:53:15.820Z,14.0
2018-08-25T06:54:16.499Z,13.9
2018-08-25T06:55:17.220Z,13.9
2018-08-25T06:56:17.949Z,13.8
2018-08-25T06:57:18.742Z,13.8
2018-08-25T06:58:19.707Z,13.8
2018-08-25T06:59:20.482Z,13.7
2018-08-25T07:00:21.154Z,13.6
2018-08-25T07:01:21.876Z,13.6
2018-08-25T07:02:22.595Z,13.5
2018-08-25T07:03:23.316Z,13.4
2018-08-25T07:04:24.039Z,13.3
2018-08-25T07:05:24.781Z,13.4
2018-08-25T07:06:25.501Z,13.4
2018-08-25T07:07:26.490Z,13.5
2018-08-25T07:08:27.211Z,13.4
2018-08-25T07:09:27.938Z,13.5
2018-08-25T07:10:28.659Z,13.3
2018-08-25T07:11:29.386Z,13.3
2018-08-25T07:12:30.103Z,13.3
2018-08-25T07:13:30.827Z,13.3
2018-08-25T07:14:31.550Z,13.2
2018-08-25T07:15:32.274Z,13.3
2018-08-25T07:16:33.000Z,13.4
2018-08-25T07:17:33.724Z,13.4
2018-08-25T07:18:34.443Z,13.3
2018-08-25T07:19:35.165Z,13.2
2018-08-25T07:20:35.936Z,13.2
2018-08-25T07:21:36.711Z,13.1
2018-08-25T07:22:37.424Z,13.1
2018-08-25T07:23:38.153Z,13.1
2018-08-25T07:24:38.873Z,13.1
2018-08-25T07:25:39.620Z,13.1
2018-08-25T07:26:40.334Z,13.1
2018-08-25T07:27:41.310Z,13.2
2018-08-25T07:28:42.044Z,13.2
2018-08-25T07:29:42.766Z,13.3
2018-08-25T07:30:43.492Z,13.2
2018-08-25T07:31:44.274Z,13.2
2018-08-25T07:34:00.565Z,13.1
2018-08-25T07:35:01.345Z,13.2
2018-08-25T07:36:02.539Z,13.2
2018-08-25T07:37:03.344Z,13.4
2018-08-25T07:38:04.090Z,13.4
2018-08-25T07:39:04.817Z,13.4
2018-08-25T07:40:05.541Z,13.4
2018-08-25T07:41:06.289Z,13.6
2018-08-25T07:42:07.025Z,13.8
2018-08-25T07:43:07.768Z,14.1
2018-08-25T07:44:08.731Z,14.4
2018-08-25T07:45:09.479Z,14.5
2018-08-25T07:46:10.241Z,14.3
2018-08-25T07:47:10.968Z,14.4
2018-08-25T07:48:11.682Z,14.3
2018-08-25T07:49:12.412Z,14.2
2018-08-25T07:52:44.221Z,13.9
2018-08-25T07:53:45.028Z,13.8
2018-08-25T07:54:45.682Z,13.9
2018-08-25T07:55:46.403Z,13.8
2018-08-25T07:56:47.186Z,13.9
2018-08-25T07:59:03.511Z,13.7
2018-08-25T08:01:19.776Z,13.7
2018-08-25T08:02:20.539Z,13.8
2018-08-25T08:03:21.574Z,13.8
2018-08-25T08:04:22.381Z,13.7
2018-08-25T08:05:23.114Z,13.6
2018-08-25T08:06:23.899Z,13.7
2018-08-25T08:07:24.673Z,13.6
2018-08-25T08:09:40.901Z,13.5
2018-08-25T08:10:41.684Z,13.4
2018-08-25T08:12:57.984Z,13.5
2018-08-25T08:13:58.764Z,13.6
2018-08-25T08:14:59.770Z,14.0
2018-08-25T08:16:00.854Z,14.4
2018-08-25T08:17:01.632Z,14.7
2018-08-25T08:18:02.403Z,14.8
2018-08-25T08:19:45.860Z,15.1
2018-08-25T08:20:46.639Z,15.5
2018-08-25T08:21:47.427Z,15.9
2018-08-25T08:22:48.203Z,16.2
2018-08-25T08:23:49.013Z,16.3
2018-08-25T08:24:49.790Z,16.7
2018-08-25T08:27:06.073Z,17.4
2018-08-25T08:28:06.805Z,17.3
2018-08-25T08:30:23.097Z,17.8
2018-08-25T08:31:23.822Z,17.9
2018-08-25T08:32:24.548Z,18.2
2018-08-25T08:33:25.280Z,18.0
2018-08-25T08:34:26.018Z,17.9
2018-08-25T08:35:26.746Z,17.6
2018-08-25T08:36:27.474Z,17.8
2018-08-25T08:37:28.200Z,17.3
2018-08-25T08:39:44.441Z,17.2
2018-08-25T08:40:45.180Z,17.1
2018-08-25T08:41:45.912Z,16.9
2018-08-25T08:42:46.640Z,17.2
2018-08-25T08:43:47.362Z,17.3
2018-08-25T08:44:48.102Z,17.2
2018-08-25T08:45:48.848Z,17.0
2018-08-25T08:46:49.577Z,16.7
2018-08-25T08:47:50.301Z,16.4
2018-08-25T08:48:51.034Z,16.3
2018-08-25T08:49:51.794Z,16.3
2018-08-25T08:50:52.501Z,16.4
2018-08-25T08:51:53.247Z,16.6
2018-08-25T08:52:53.984Z,16.7
2018-08-25T08:53:54.711Z,16.5
2018-08-25T08:54:55.484Z,16.3
2018-08-25T08:55:56.256Z,16.1
2018-08-25T08:56:56.988Z,15.8
2018-08-25T08:57:57.714Z,15.6
2018-08-25T08:58:58.483Z,15.4
2018-08-25T08:59:59.561Z,15.3
2018-08-25T09:01:00.277Z,15.1
2018-08-25T09:02:01.017Z,14.9
2018-08-25T09:03:02.095Z,14.9
2018-08-25T09:04:02.820Z,14.8
2018-08-25T09:05:03.570Z,14.7
2018-08-25T09:06:04.296Z,14.7
2018-08-25T09:07:05.026Z,14.8
2018-08-25T09:08:05.759Z,15.6
2018-08-25T09:09:06.487Z,16.3
2018-08-25T09:10:07.226Z,17.0
2018-08-25T09:11:08.219Z,17.1
2018-08-25T09:12:08.943Z,17.0
2018-08-25T09:13:09.709Z,17.2
2018-08-25T09:14:10.451Z,17.3
2018-08-25T09:15:11.172Z,17.2
2018-08-25T09:16:11.912Z,17.2
2018-08-25T09:17:12.650Z,17.5
2018-08-25T09:18:13.779Z,17.3
2018-08-25T09:19:14.449Z,17.2
2018-08-25T09:20:15.178Z,17.0
2018-08-25T09:21:16.152Z,17.1
2018-08-25T09:22:16.896Z,16.9
2018-08-25T09:23:17.976Z,16.9
2018-08-25T09:24:18.707Z,17.2
2018-08-25T09:25:19.435Z,17.3
2018-08-25T09:26:20.162Z,17.4
2018-08-25T09:27:20.913Z,17.3
2018-08-25T09:28:21.611Z,17.3
2018-08-25T09:29:22.341Z,17.2
2018-08-25T09:30:23.063Z,16.9
2018-08-25T09:31:23.788Z,16.8
2018-08-25T09:32:24.528Z,16.7
2018-08-25T09:33:25.510Z,16.4
2018-08-25T09:34:26.236Z,16.3
2018-08-25T09:35:26.969Z,16.2
2018-08-25T09:36:27.795Z,16.0
2018-08-25T09:37:28.414Z,15.9
2018-08-25T09:38:29.139Z,15.7
2018-08-25T09:39:29.858Z,15.5
2018-08-25T09:40:30.577Z,15.4
2018-08-25T09:41:31.301Z,15.1
2018-08-25T09:42:32.040Z,14.9
2018-08-25T09:43:32.768Z,14.6
2018-08-25T09:44:33.503Z,14.5
2018-08-25T09:45:34.221Z,14.4
2018-08-25T09:46:34.996Z,14.1
2018-08-25T09:47:35.772Z,14.0
2018-08-25T09:48:36.745Z,14.0
2018-08-25T09:49:37.470Z,13.9
2018-08-25T09:50:38.210Z,13.8
2018-08-25T09:51:38.945Z,13.8
2018-08-25T09:52:39.714Z,13.8
2018-08-25T09:53:40.530Z,13.6
2018-08-25T09:54:41.181Z,13.7
2018-08-25T09:55:41.911Z,13.7
2018-08-25T09:56:42.629Z,13.8
2018-08-25T09:57:43.712Z,13.7
2018-08-25T09:58:44.435Z,13.8
2018-08-25T09:59:45.151Z,13.7
2018-08-25T10:00:45.871Z,13.5
2018-08-25T10:01:46.609Z,13.4
2018-08-25T10:02:47.344Z,13.3
2018-08-25T10:03:48.064Z,13.2
2018-08-25T10:04:48.786Z,13.1
2018-08-25T10:05:49.518Z,13.0
2018-08-25T10:06:50.498Z,13.0
2018-08-25T10:07:51.223Z,13.0
2018-08-25T10:08:51.958Z,13.2
2018-08-25T10:09:52.680Z,13.3
2018-08-25T10:10:53.420Z,13.3
2018-08-25T10:11:54.129Z,13.5
2018-08-25T10:12:54.859Z,13.5
2018-08-25T10:13:55.596Z,13.8
2018-08-25T10:14:56.319Z,14.2
2018-08-25T10:15:57.054Z,14.5
2018-08-25T10:16:57.855Z,14.7
2018-08-25T10:17:58.537Z,15.1
2018-08-25T10:18:59.235Z,15.7
2018-08-25T10:19:59.962Z,16.0
2018-08-25T10:21:00.692Z,16.4
2018-08-25T10:22:01.767Z,16.4
2018-08-25T10:23:02.559Z,16.3
2018-08-25T10:24:03.218Z,16.3
2018-08-25T10:25:03.934Z,15.9
2018-08-25T10:26:04.663Z,15.7
2018-08-25T10:27:05.440Z,15.5
2018-08-25T10:28:06.166Z,15.3
2018-08-25T10:29:06.982Z,15.0
2018-08-25T10:30:07.620Z,14.8
2018-08-25T10:31:08.340Z,14.9
2018-08-25T10:32:09.124Z,14.7
2018-08-25T10:33:09.870Z,14.5
2018-08-25T10:34:10.593Z,14.2
2018-08-25T10:35:11.300Z,14.3
2018-08-25T10:36:12.032Z,14.3
2018-08-25T10:37:12.757Z,14.2
2018-08-25T10:38:13.484Z,14.2
2018-08-25T10:39:14.212Z,14.3
2018-08-25T10:40:15.196Z,14.4
2018-08-25T10:41:16.195Z,14.4
2018-08-25T10:42:16.908Z,14.5
2018-08-25T10:43:17.945Z,14.7
2018-08-25T10:44:18.676Z,14.7
2018-08-25T10:45:19.391Z,14.9
2018-08-25T10:46:20.125Z,15.1
2018-08-25T10:47:20.847Z,15.4
2018-08-25T10:48:21.583Z,15.4
2018-08-25T10:49:22.303Z,15.3
2018-08-25T10:50:23.276Z,15.4
2018-08-25T10:51:24.005Z,15.0
2018-08-25T10:52:24.741Z,15.0
2018-08-25T10:53:25.467Z,15.3
2018-08-25T10:54:26.190Z,15.4
2018-08-25T10:55:27.166Z,15.6
2018-08-25T10:56:28.148Z,15.7
2018-08-25T10:57:28.864Z,16.2
2018-08-25T10:58:29.633Z,16.1
2018-08-25T10:59:30.374Z,16.4
2018-08-25T11:00:31.137Z,16.9
2018-08-25T11:01:31.811Z,17.0
2018-08-25T11:02:32.794Z,17.3
2018-08-25T11:03:33.523Z,17.8
2018-08-25T11:04:34.491Z,17.9
2018-08-25T11:05:35.221Z,17.8
2018-08-25T11:06:35.959Z,17.8
2018-08-25T11:07:36.673Z,17.8
2018-08-25T11:08:37.410Z,17.7
2018-08-25T11:09:38.141Z,17.8
2018-08-25T11:10:38.863Z,17.9
2018-08-25T11:11:40.192Z,18.3
2018-08-25T11:12:41.168Z,18.4
2018-08-25T11:13:41.899Z,18.5
2018-08-25T11:14:42.635Z,18.4
2018-08-25T11:15:43.365Z,18.8
2018-08-25T11:16:44.098Z,19.0
2018-08-25T11:17:44.826Z,19.0
2018-08-25T11:18:45.795Z,19.0
2018-08-25T11:19:46.519Z,18.8
2018-08-25T11:20:47.257Z,18.7
2018-08-25T11:21:47.984Z,18.4
2018-08-25T11:22:48.722Z,18.2
2018-08-25T11:23:49.579Z,18.1
2018-08-25T11:24:50.189Z,18.1
2018-08-25T11:25:50.923Z,17.8
2018-08-25T11:26:51.644Z,17.5
2018-08-25T11:27:52.426Z,17.3
2018-08-25T11:28:53.144Z,17.1
2018-08-25T11:29:53.874Z,17.2
2018-08-25T11:30:54.595Z,17.4
2018-08-25T11:31:55.321Z,17.7
2018-08-25T11:32:56.296Z,18.2
2018-08-25T11:33:57.273Z,18.5
2018-08-25T11:34:57.987Z,18.4
2018-08-25T11:35:58.731Z,18.2
2018-08-25T11:36:59.465Z,17.9
2018-08-25T11:38:00.244Z,17.6
2018-08-25T11:39:00.985Z,17.3
2018-08-25T11:40:01.713Z,17.5
2018-08-25T11:41:02.487Z,17.8
2018-08-25T11:42:03.185Z,18.0
2018-08-25T11:43:03.925Z,18.2
2018-08-25T11:44:04.721Z,18.3
2018-08-25T11:45:05.380Z,18.1
2018-08-25T11:46:06.105Z,18.2
2018-08-25T11:47:06.838Z,18.6
2018-08-25T11:48:07.569Z,19.0
2018-08-25T11:49:08.302Z,19.4
2018-08-25T11:50:09.040Z,19.8
2018-08-25T11:51:09.778Z,20.2
2018-08-25T11:52:10.507Z,20.3
2018-08-25T11:53:11.244Z,20.6
2018-08-25T11:54:12.067Z,20.9
2018-08-25T11:55:12.743Z,20.2
2018-08-25T11:56:13.722Z,20.6
2018-08-25T11:57:14.462Z,21.2
2018-08-25T11:58:15.200Z,20.8
2018-08-25T11:59:15.924Z,20.5
2018-08-25T12:00:16.661Z,20.2
2018-08-25T12:01:17.398Z,20.1
2018-08-25T12:02:18.205Z,19.9
2018-08-25T12:03:18.901Z,20.6
2018-08-25T12:04:19.616Z,21.2
2018-08-25T12:05:20.338Z,20.9
2018-08-25T12:06:21.078Z,20.8
2018-08-25T12:07:21.873Z,20.0
2018-08-25T12:08:22.610Z,19.6
2018-08-25T12:09:23.415Z,19.3
2018-08-25T12:10:24.077Z,18.9
2018-08-25T12:11:24.810Z,18.8
2018-08-25T12:12:25.591Z,18.6
2018-08-25T12:13:26.321Z,18.6
2018-08-25T12:14:27.060Z,18.5
2018-08-25T12:15:27.794Z,18.3
2018-08-25T12:16:28.908Z,18.1
2018-08-25T12:17:29.574Z,17.9
2018-08-25T12:18:30.310Z,17.9
2018-08-25T12:19:31.329Z,18.0
2018-08-25T12:20:32.046Z,18.2
2018-08-25T12:21:32.780Z,18.5
2018-08-25T12:22:33.513Z,18.5
2018-08-25T12:23:34.253Z,18.5
2018-08-25T12:24:34.981Z,18.7
2018-08-25T12:25:35.712Z,18.7
2018-08-25T12:26:36.449Z,18.8
2018-08-25T12:27:37.184Z,19.0
2018-08-25T12:28:37.915Z,19.8
2018-08-25T12:29:38.655Z,20.3
2018-08-25T12:30:39.453Z,20.6
2018-08-25T12:31:40.127Z,20.9
2018-08-25T12:32:41.101Z,21.1
2018-08-25T12:33:41.882Z,21.3
2018-08-25T12:34:42.858Z,21.4
2018-08-25T12:35:43.598Z,22.0
2018-08-25T12:36:44.318Z,22.3
2018-08-25T12:37:45.051Z,22.4
2018-08-25T12:38:45.785Z,22.7
2018-08-25T12:39:46.522Z,23.1
2018-08-25T12:40:47.603Z,23.3
2018-08-25T12:41:48.337Z,23.4
2018-08-25T12:42:49.073Z,23.4
2018-08-25T12:43:49.803Z,23.0
2018-08-25T12:44:50.786Z,22.7
2018-08-25T12:45:52.124Z,23.0
2018-08-25T12:46:53.103Z,23.3
2018-08-25T12:47:53.827Z,23.6
2018-08-25T12:48:54.654Z,23.7
2018-08-25T12:49:55.502Z,23.4
2018-08-25T12:50:56.290Z,23.3
2018-08-25T12:51:57.021Z,23.1
2018-08-25T12:52:57.753Z,22.9
2018-08-25T12:53:58.485Z,22.8
2018-08-25T12:54:59.213Z,22.8
2018-08-25T12:56:00.200Z,22.6
2018-08-25T12:57:00.977Z,22.4
2018-08-25T12:58:01.718Z,21.8
2018-08-25T12:59:02.539Z,21.4
2018-08-25T13:00:03.190Z,21.2
2018-08-25T13:01:03.916Z,20.9
2018-08-25T13:02:04.666Z,20.6
2018-08-25T13:03:05.405Z,20.3
2018-08-25T13:04:06.136Z,20.1
2018-08-25T13:05:06.864Z,19.9
2018-08-25T13:06:07.599Z,20.1
2018-08-25T13:07:08.331Z,20.9
2018-08-25T13:08:09.075Z,21.4
2018-08-25T13:09:09.798Z,21.6
2018-08-25T13:10:10.543Z,21.5
2018-08-25T13:11:11.272Z,21.3
2018-08-25T13:12:12.002Z,20.9
2018-08-25T13:13:12.721Z,20.7
2018-08-25T13:14:13.454Z,20.3
2018-08-25T13:15:14.182Z,19.7
2018-08-25T13:16:14.904Z,19.4
2018-08-25T13:17:15.632Z,19.3
2018-08-25T13:18:16.356Z,19.3
2018-08-25T13:19:17.091Z,19.2
2018-08-25T13:20:17.825Z,19.5
2018-08-25T13:21:18.553Z,19.5
2018-08-25T13:22:19.302Z,19.6
2018-08-25T13:23:20.052Z,19.6
2018-08-25T13:24:20.766Z,19.5
2018-08-25T13:25:21.859Z,19.5
2018-08-25T13:26:22.583Z,19.7
2018-08-25T13:27:23.312Z,19.7
2018-08-25T13:28:24.035Z,20.0
2018-08-25T13:29:24.768Z,20.2
2018-08-25T13:30:25.550Z,20.6
2018-08-25T13:31:26.369Z,20.6
2018-08-25T13:32:27.008Z,20.3
2018-08-25T13:33:27.739Z,20.1
2018-08-25T13:34:28.468Z,19.9
2018-08-25T13:35:29.248Z,19.7
2018-08-25T13:36:29.983Z,19.2
2018-08-25T13:37:30.708Z,19.2
2018-08-25T13:38:31.442Z,19.2
2018-08-25T13:39:32.175Z,19.8
2018-08-25T13:40:32.897Z,20.5
2018-08-25T13:41:33.631Z,21.2
2018-08-25T13:42:34.370Z,21.4
2018-08-25T13:43:35.145Z,21.3
2018-08-25T13:44:35.823Z,21.4
2018-08-25T13:45:36.557Z,21.9
2018-08-25T13:46:37.293Z,21.9
2018-08-25T13:47:38.019Z,21.9
2018-08-25T13:48:38.752Z,21.9
2018-08-25T13:49:39.487Z,21.4
2018-08-25T13:50:40.221Z,21.2
2018-08-25T13:51:41.211Z,20.8
2018-08-25T13:52:41.997Z,20.6
2018-08-25T13:53:42.677Z,20.5
2018-08-25T13:54:43.402Z,20.4